sensor_id;sensor_type;location;lat;lon;timestamp;P1;durP1;ratioP1;P2;durP2;ratioP2
70369;SDS011;57790;51.356;-2.906;2023-04-07T00:00:06;4.53;;;1.03;;
70369;SDS011;57790;51.356;-2.906;2023-04-07T00:03:07;4.57;;;0.90;;
70369;SDS011;57790;51.356;-2.906;2023-04-07T00:06:07;2.70;;;0.63;;
70369;SDS011;57790;51.356;-2.906;2023-04-07T00:09:08;5.40;;;1.17;;
70369;SDS011;57790;51.356;-2.906;2023-04-07T00:12:10;7.55;;;0.95;;
70369;SDS011;57790;51.356;-2.906;2023-04-07T00:15:10;4.73;;;0.80;;
70369;SDS011;57790;51.356;-2.906;2023-04-07T00:18:11;4.50;;;0.97;;
70369;SDS011;57790;51.356;-2.906;2023-04-07T00:21:11;4.47;;;0.80;;
70369;SDS011;57790;51.356;-2.906;2023-04-07T00:24:11;6.23;;;1.00;;
70369;SDS011;57790;51.356;-2.906;2023-04-07T00:27:12;4.97;;;0.93;;
70369;SDS011;57790;51.356;-2.906;2023-04-07T00:30:12;3.80;;;0.93;;
70369;SDS011;57790;51.356;-2.906;2023-04-07T00:33:14;4.70;;;0.80;;
70369;SDS011;57790;51.356;-2.906;2023-04-07T00:36:14;3.23;;;0.83;;
70369;SDS011;57790;51.356;-2.906;2023-04-07T00:39:15;4.07;;;0.80;;
70369;SDS011;57790;51.356;-2.906;2023-04-07T00:42:15;4.30;;;0.80;;
70369;SDS011;57790;51.356;-2.906;2023-04-07T00:45:15;4.57;;;0.80;;
70369;SDS011;57790;51.356;-2.906;2023-04-07T00:48:16;4.47;;;1.00;;
70369;SDS011;57790;51.356;-2.906;2023-04-07T00:51:17;5.13;;;0.90;;
70369;SDS011;57790;51.356;-2.906;2023-04-07T00:54:25;4.67;;;1.03;;
70369;SDS011;57790;51.356;-2.906;2023-04-07T00:57:25;4.63;;;0.80;;
70369;SDS011;57790;51.356;-2.906;2023-04-07T01:00:26;4.43;;;0.90;;
70369;SDS011;57790;51.356;-2.906;2023-04-07T01:03:29;4.83;;;1.10;;
70369;SDS011;57790;51.356;-2.906;2023-04-07T01:06:34;4.60;;;1.05;;
70369;SDS011;57790;51.356;-2.906;2023-04-07T01:09:46;6.40;;;1.00;;
70369;SDS011;57790;51.356;-2.906;2023-04-07T01:12:58;4.47;;;1.00;;
70369;SDS011;57790;51.356;-2.906;2023-04-07T01:16:11;5.40;;;0.80;;
70369;SDS011;57790;51.356;-2.906;2023-04-07T01:19:21;3.77;;;0.80;;
70369;SDS011;57790;51.356;-2.906;2023-04-07T01:22:37;3.67;;;0.63;;
70369;SDS011;57790;51.356;-2.906;2023-04-07T01:29:25;7.40;;;1.10;;
70369;SDS011;57790;51.356;-2.906;2023-04-07T01:32:30;4.63;;;0.90;;
70369;SDS011;57790;51.356;-2.906;2023-04-07T01:35:34;5.87;;;0.83;;
70369;SDS011;57790;51.356;-2.906;2023-04-07T01:38:36;4.97;;;0.80;;
70369;SDS011;57790;51.356;-2.906;2023-04-07T01:41:38;4.22;;;1.00;;
70369;SDS011;57790;51.356;-2.906;2023-04-07T01:44:39;4.72;;;0.90;;
70369;SDS011;57790;51.356;-2.906;2023-04-07T01:47:40;4.93;;;1.00;;
70369;SDS011;57790;51.356;-2.906;2023-04-07T01:50:43;5.50;;;1.00;;
70369;SDS011;57790;51.356;-2.906;2023-04-07T01:53:45;5.82;;;1.20;;
70369;SDS011;57790;51.356;-2.906;2023-04-07T01:56:46;6.25;;;1.33;;
70369;SDS011;57790;51.356;-2.906;2023-04-07T01:59:47;5.13;;;1.07;;
70369;SDS011;57790;51.356;-2.906;2023-04-07T02:02:48;5.00;;;1.03;;
70369;SDS011;57790;51.356;-2.906;2023-04-07T02:05:54;6.55;;;1.02;;
70369;SDS011;57790;51.356;-2.906;2023-04-07T02:09:03;5.95;;;1.10;;
70369;SDS011;57790;51.356;-2.906;2023-04-07T02:12:07;4.38;;;0.88;;
70369;SDS011;57790;51.356;-2.906;2023-04-07T02:15:12;5.07;;;0.90;;
70369;SDS011;57790;51.356;-2.906;2023-04-07T02:18:13;6.03;;;0.87;;
70369;SDS011;57790;51.356;-2.906;2023-04-07T02:21:15;6.03;;;0.90;;
70369;SDS011;57790;51.356;-2.906;2023-04-07T02:24:20;4.43;;;0.90;;
70369;SDS011;57790;51.356;-2.906;2023-04-07T02:27:21;4.93;;;1.00;;
70369;SDS011;57790;51.356;-2.906;2023-04-07T02:30:21;6.27;;;1.00;;
70369;SDS011;57790;51.356;-2.906;2023-04-07T02:33:22;3.60;;;0.80;;
70369;SDS011;57790;51.356;-2.906;2023-04-07T02:36:23;5.20;;;0.90;;
70369;SDS011;57790;51.356;-2.906;2023-04-07T02:39:23;5.47;;;1.10;;
70369;SDS011;57790;51.356;-2.906;2023-04-07T02:42:23;4.07;;;0.90;;
70369;SDS011;57790;51.356;-2.906;2023-04-07T02:45:24;4.47;;;1.07;;
70369;SDS011;57790;51.356;-2.906;2023-04-07T02:48:24;5.05;;;1.00;;
70369;SDS011;57790;51.356;-2.906;2023-04-07T02:51:25;4.67;;;0.80;;
70369;SDS011;57790;51.356;-2.906;2023-04-07T02:54:26;3.70;;;0.70;;
70369;SDS011;57790;51.356;-2.906;2023-04-07T02:57:26;4.93;;;0.85;;
70369;SDS011;57790;51.356;-2.906;2023-04-07T03:00:27;6.93;;;1.20;;
70369;SDS011;57790;51.356;-2.906;2023-04-07T03:03:27;5.23;;;1.07;;
70369;SDS011;57790;51.356;-2.906;2023-04-07T03:06:27;4.57;;;0.73;;
70369;SDS011;57790;51.356;-2.906;2023-04-07T03:09:28;4.83;;;0.90;;
70369;SDS011;57790;51.356;-2.906;2023-04-07T03:12:30;3.97;;;1.00;;
70369;SDS011;57790;51.356;-2.906;2023-04-07T03:15:37;7.07;;;0.90;;
70369;SDS011;57790;51.356;-2.906;2023-04-07T03:18:37;5.23;;;0.90;;
70369;SDS011;57790;51.356;-2.906;2023-04-07T03:21:38;5.20;;;0.90;;
70369;SDS011;57790;51.356;-2.906;2023-04-07T03:24:39;3.53;;;0.80;;
70369;SDS011;57790;51.356;-2.906;2023-04-07T03:27:40;3.70;;;0.90;;
70369;SDS011;57790;51.356;-2.906;2023-04-07T03:30:40;5.10;;;1.03;;
70369;SDS011;57790;51.356;-2.906;2023-04-07T03:33:40;7.60;;;1.00;;
70369;SDS011;57790;51.356;-2.906;2023-04-07T03:36:41;3.63;;;0.85;;
70369;SDS011;57790;51.356;-2.906;2023-04-07T03:39:41;5.70;;;0.90;;
70369;SDS011;57790;51.356;-2.906;2023-04-07T03:42:42;5.80;;;1.03;;
70369;SDS011;57790;51.356;-2.906;2023-04-07T03:45:42;4.27;;;0.80;;
70369;SDS011;57790;51.356;-2.906;2023-04-07T03:48:42;3.27;;;0.90;;
70369;SDS011;57790;51.356;-2.906;2023-04-07T03:51:43;4.80;;;0.93;;
70369;SDS011;57790;51.356;-2.906;2023-04-07T03:54:43;3.85;;;0.80;;
70369;SDS011;57790;51.356;-2.906;2023-04-07T03:57:44;4.20;;;1.10;;
70369;SDS011;57790;51.356;-2.906;2023-04-07T04:00:44;5.23;;;0.90;;
70369;SDS011;57790;51.356;-2.906;2023-04-07T04:03:45;4.07;;;0.82;;
70369;SDS011;57790;51.356;-2.906;2023-04-07T04:06:46;4.70;;;0.83;;
70369;SDS011;57790;51.356;-2.906;2023-04-07T04:09:46;4.90;;;0.90;;
70369;SDS011;57790;51.356;-2.906;2023-04-07T04:12:47;5.90;;;1.10;;
70369;SDS011;57790;51.356;-2.906;2023-04-07T04:15:59;4.23;;;0.77;;
70369;SDS011;57790;51.356;-2.906;2023-04-07T04:19:00;4.43;;;1.03;;
70369;SDS011;57790;51.356;-2.906;2023-04-07T04:22:01;4.20;;;0.90;;
70369;SDS011;57790;51.356;-2.906;2023-04-07T04:25:01;3.25;;;0.80;;
70369;SDS011;57790;51.356;-2.906;2023-04-07T04:28:01;3.37;;;0.80;;
70369;SDS011;57790;51.356;-2.906;2023-04-07T04:31:02;4.37;;;0.90;;
70369;SDS011;57790;51.356;-2.906;2023-04-07T04:34:02;4.20;;;0.90;;
70369;SDS011;57790;51.356;-2.906;2023-04-07T04:37:03;4.10;;;0.70;;
70369;SDS011;57790;51.356;-2.906;2023-04-07T04:40:03;4.95;;;0.75;;
70369;SDS011;57790;51.356;-2.906;2023-04-07T04:43:07;4.43;;;0.70;;
70369;SDS011;57790;51.356;-2.906;2023-04-07T04:46:08;3.30;;;0.80;;
70369;SDS011;57790;51.356;-2.906;2023-04-07T04:49:09;4.83;;;0.90;;
70369;SDS011;57790;51.356;-2.906;2023-04-07T04:52:09;3.47;;;0.80;;
70369;SDS011;57790;51.356;-2.906;2023-04-07T04:55:10;4.47;;;0.80;;
70369;SDS011;57790;51.356;-2.906;2023-04-07T04:58:10;6.30;;;0.90;;
70369;SDS011;57790;51.356;-2.906;2023-04-07T05:01:11;6.00;;;0.83;;
70369;SDS011;57790;51.356;-2.906;2023-04-07T05:04:12;4.30;;;0.80;;
70369;SDS011;57790;51.356;-2.906;2023-04-07T05:07:13;3.07;;;0.60;;
70369;SDS011;57790;51.356;-2.906;2023-04-07T05:10:13;3.20;;;0.87;;
70369;SDS011;57790;51.356;-2.906;2023-04-07T05:13:13;4.93;;;0.70;;
70369;SDS011;57790;51.356;-2.906;2023-04-07T05:16:14;3.27;;;0.70;;
70369;SDS011;57790;51.356;-2.906;2023-04-07T05:19:14;3.90;;;0.70;;
70369;SDS011;57790;51.356;-2.906;2023-04-07T05:22:15;3.57;;;0.80;;
70369;SDS011;57790;51.356;-2.906;2023-04-07T05:25:15;4.60;;;1.20;;
70369;SDS011;57790;51.356;-2.906;2023-04-07T05:28:16;4.70;;;0.90;;
70369;SDS011;57790;51.356;-2.906;2023-04-07T05:31:16;3.38;;;0.80;;
70369;SDS011;57790;51.356;-2.906;2023-04-07T05:34:17;3.60;;;0.87;;
70369;SDS011;57790;51.356;-2.906;2023-04-07T05:37:17;3.33;;;0.80;;
70369;SDS011;57790;51.356;-2.906;2023-04-07T05:40:17;2.90;;;0.90;;
70369;SDS011;57790;51.356;-2.906;2023-04-07T05:43:18;3.63;;;0.80;;
70369;SDS011;57790;51.356;-2.906;2023-04-07T05:46:18;4.30;;;0.90;;
70369;SDS011;57790;51.356;-2.906;2023-04-07T05:49:18;5.23;;;0.93;;
70369;SDS011;57790;51.356;-2.906;2023-04-07T05:52:19;4.10;;;0.80;;
70369;SDS011;57790;51.356;-2.906;2023-04-07T05:55:20;3.53;;;0.77;;
70369;SDS011;57790;51.356;-2.906;2023-04-07T05:58:20;3.37;;;0.60;;
70369;SDS011;57790;51.356;-2.906;2023-04-07T06:01:20;4.07;;;0.87;;
70369;SDS011;57790;51.356;-2.906;2023-04-07T06:04:21;3.80;;;0.70;;
70369;SDS011;57790;51.356;-2.906;2023-04-07T06:07:21;5.53;;;1.10;;
70369;SDS011;57790;51.356;-2.906;2023-04-07T06:10:22;4.07;;;1.00;;
70369;SDS011;57790;51.356;-2.906;2023-04-07T06:13:22;5.40;;;1.03;;
70369;SDS011;57790;51.356;-2.906;2023-04-07T06:16:25;6.15;;;1.27;;
70369;SDS011;57790;51.356;-2.906;2023-04-07T06:19:25;5.47;;;0.90;;
70369;SDS011;57790;51.356;-2.906;2023-04-07T06:22:28;6.95;;;1.33;;
70369;SDS011;57790;51.356;-2.906;2023-04-07T06:25:29;6.83;;;1.20;;
70369;SDS011;57790;51.356;-2.906;2023-04-07T06:28:29;4.90;;;1.10;;
70369;SDS011;57790;51.356;-2.906;2023-04-07T06:31:30;6.25;;;1.25;;
70369;SDS011;57790;51.356;-2.906;2023-04-07T06:34:30;8.70;;;1.10;;
70369;SDS011;57790;51.356;-2.906;2023-04-07T06:37:30;5.63;;;1.33;;
70369;SDS011;57790;51.356;-2.906;2023-04-07T06:40:31;4.57;;;1.10;;
70369;SDS011;57790;51.356;-2.906;2023-04-07T06:43:31;5.47;;;1.33;;
70369;SDS011;57790;51.356;-2.906;2023-04-07T06:46:31;4.57;;;1.20;;
70369;SDS011;57790;51.356;-2.906;2023-04-07T06:49:32;5.10;;;0.90;;
70369;SDS011;57790;51.356;-2.906;2023-04-07T06:52:32;7.87;;;1.13;;
70369;SDS011;57790;51.356;-2.906;2023-04-07T06:55:33;6.03;;;1.40;;
70369;SDS011;57790;51.356;-2.906;2023-04-07T06:58:33;6.67;;;1.20;;
70369;SDS011;57790;51.356;-2.906;2023-04-07T07:01:34;5.50;;;1.35;;
70369;SDS011;57790;51.356;-2.906;2023-04-07T07:04:36;4.53;;;1.10;;
70369;SDS011;57790;51.356;-2.906;2023-04-07T07:07:36;6.40;;;1.40;;
70369;SDS011;57790;51.356;-2.906;2023-04-07T07:10:37;3.60;;;0.90;;
70369;SDS011;57790;51.356;-2.906;2023-04-07T07:13:37;5.40;;;1.20;;
70369;SDS011;57790;51.356;-2.906;2023-04-07T07:16:38;5.28;;;1.00;;
70369;SDS011;57790;51.356;-2.906;2023-04-07T07:19:38;6.60;;;1.03;;
70369;SDS011;57790;51.356;-2.906;2023-04-07T07:22:39;4.90;;;1.17;;
70369;SDS011;57790;51.356;-2.906;2023-04-07T07:25:40;5.47;;;0.90;;
70369;SDS011;57790;51.356;-2.906;2023-04-07T07:28:40;4.13;;;0.93;;
70369;SDS011;57790;51.356;-2.906;2023-04-07T07:31:41;6.30;;;0.90;;
70369;SDS011;57790;51.356;-2.906;2023-04-07T07:34:41;4.97;;;0.88;;
70369;SDS011;57790;51.356;-2.906;2023-04-07T07:37:42;4.27;;;1.00;;
70369;SDS011;57790;51.356;-2.906;2023-04-07T07:40:43;5.82;;;1.10;;
70369;SDS011;57790;51.356;-2.906;2023-04-07T07:43:44;5.37;;;1.10;;
70369;SDS011;57790;51.356;-2.906;2023-04-07T07:46:45;7.05;;;1.30;;
70369;SDS011;57790;51.356;-2.906;2023-04-07T07:49:45;5.97;;;1.17;;
70369;SDS011;57790;51.356;-2.906;2023-04-07T07:52:45;3.33;;;0.80;;
70369;SDS011;57790;51.356;-2.906;2023-04-07T07:55:46;5.38;;;1.10;;
70369;SDS011;57790;51.356;-2.906;2023-04-07T07:58:47;5.40;;;1.03;;
70369;SDS011;57790;51.356;-2.906;2023-04-07T08:01:47;4.43;;;0.80;;
70369;SDS011;57790;51.356;-2.906;2023-04-07T08:04:47;7.03;;;0.83;;
70369;SDS011;57790;51.356;-2.906;2023-04-07T08:07:48;6.93;;;1.03;;
70369;SDS011;57790;51.356;-2.906;2023-04-07T08:10:48;3.63;;;0.90;;
70369;SDS011;57790;51.356;-2.906;2023-04-07T08:13:49;5.53;;;1.00;;
70369;SDS011;57790;51.356;-2.906;2023-04-07T08:16:49;4.83;;;0.80;;
70369;SDS011;57790;51.356;-2.906;2023-04-07T08:19:50;4.82;;;0.98;;
70369;SDS011;57790;51.356;-2.906;2023-04-07T08:22:50;4.73;;;0.70;;
70369;SDS011;57790;51.356;-2.906;2023-04-07T08:25:51;3.93;;;0.80;;
70369;SDS011;57790;51.356;-2.906;2023-04-07T08:28:51;3.50;;;0.70;;
70369;SDS011;57790;51.356;-2.906;2023-04-07T08:31:52;3.67;;;0.70;;
70369;SDS011;57790;51.356;-2.906;2023-04-07T08:34:54;4.83;;;0.83;;
70369;SDS011;57790;51.356;-2.906;2023-04-07T08:37:55;5.05;;;0.80;;
70369;SDS011;57790;51.356;-2.906;2023-04-07T08:41:17;5.07;;;0.90;;
70369;SDS011;57790;51.356;-2.906;2023-04-07T08:44:18;4.38;;;0.80;;
70369;SDS011;57790;51.356;-2.906;2023-04-07T08:47:21;5.40;;;0.60;;
70369;SDS011;57790;51.356;-2.906;2023-04-07T08:50:23;5.10;;;0.75;;
70369;SDS011;57790;51.356;-2.906;2023-04-07T08:53:27;5.00;;;0.90;;
70369;SDS011;57790;51.356;-2.906;2023-04-07T08:56:37;3.50;;;0.60;;
70369;SDS011;57790;51.356;-2.906;2023-04-07T08:59:41;5.10;;;0.70;;
70369;SDS011;57790;51.356;-2.906;2023-04-07T09:02:44;3.05;;;0.68;;
70369;SDS011;57790;51.356;-2.906;2023-04-07T09:05:44;5.30;;;0.83;;
70369;SDS011;57790;51.356;-2.906;2023-04-07T09:08:45;7.43;;;0.65;;
70369;SDS011;57790;51.356;-2.906;2023-04-07T09:11:47;3.70;;;0.70;;
70369;SDS011;57790;51.356;-2.906;2023-04-07T09:14:47;4.90;;;0.82;;
70369;SDS011;57790;51.356;-2.906;2023-04-07T09:17:47;6.27;;;0.80;;
70369;SDS011;57790;51.356;-2.906;2023-04-07T09:20:58;4.70;;;0.70;;
70369;SDS011;57790;51.356;-2.906;2023-04-07T09:24:10;3.63;;;0.57;;
70369;SDS011;57790;51.356;-2.906;2023-04-07T09:27:20;4.93;;;1.00;;
70369;SDS011;57790;51.356;-2.906;2023-04-07T09:30:21;3.00;;;0.60;;
70369;SDS011;57790;51.356;-2.906;2023-04-07T09:33:28;2.90;;;0.60;;
70369;SDS011;57790;51.356;-2.906;2023-04-07T09:36:30;4.47;;;0.60;;
70369;SDS011;57790;51.356;-2.906;2023-04-07T09:39:51;4.65;;;0.70;;
70369;SDS011;57790;51.356;-2.906;2023-04-07T09:42:52;4.20;;;0.50;;
70369;SDS011;57790;51.356;-2.906;2023-04-07T09:45:53;2.50;;;0.63;;
70369;SDS011;57790;51.356;-2.906;2023-04-07T09:49:13;6.05;;;0.77;;
70369;SDS011;57790;51.356;-2.906;2023-04-07T09:52:13;4.63;;;0.77;;
70369;SDS011;57790;51.356;-2.906;2023-04-07T09:55:13;3.97;;;0.70;;
70369;SDS011;57790;51.356;-2.906;2023-04-07T09:58:15;3.35;;;0.80;;
70369;SDS011;57790;51.356;-2.906;2023-04-07T10:01:16;3.65;;;0.68;;
70369;SDS011;57790;51.356;-2.906;2023-04-07T10:04:17;2.97;;;0.47;;
70369;SDS011;57790;51.356;-2.906;2023-04-07T10:07:17;3.47;;;0.53;;
70369;SDS011;57790;51.356;-2.906;2023-04-07T10:10:18;4.43;;;0.82;;
70369;SDS011;57790;51.356;-2.906;2023-04-07T10:13:19;3.73;;;0.40;;
70369;SDS011;57790;51.356;-2.906;2023-04-07T10:16:20;5.22;;;0.70;;
70369;SDS011;57790;51.356;-2.906;2023-04-07T10:19:22;3.07;;;0.77;;
70369;SDS011;57790;51.356;-2.906;2023-04-07T10:22:26;3.33;;;0.60;;
70369;SDS011;57790;51.356;-2.906;2023-04-07T10:25:27;5.45;;;0.65;;
70369;SDS011;57790;51.356;-2.906;2023-04-07T10:28:29;4.25;;;0.63;;
70369;SDS011;57790;51.356;-2.906;2023-04-07T10:31:32;4.20;;;0.60;;
70369;SDS011;57790;51.356;-2.906;2023-04-07T10:44:46;4.03;;;0.50;;
70369;SDS011;57790;51.356;-2.906;2023-04-07T10:54:20;2.75;;;0.50;;
70369;SDS011;57790;51.356;-2.906;2023-04-07T10:57:21;4.78;;;1.17;;
70369;SDS011;57790;51.356;-2.906;2023-04-07T11:00:23;5.13;;;1.00;;
70369;SDS011;57790;51.356;-2.906;2023-04-07T11:03:23;2.93;;;0.60;;
70369;SDS011;57790;51.356;-2.906;2023-04-07T11:06:24;3.77;;;0.53;;
70369;SDS011;57790;51.356;-2.906;2023-04-07T11:09:26;2.20;;;0.47;;
70369;SDS011;57790;51.356;-2.906;2023-04-07T11:12:26;4.63;;;0.60;;
70369;SDS011;57790;51.356;-2.906;2023-04-07T11:15:26;2.58;;;0.60;;
70369;SDS011;57790;51.356;-2.906;2023-04-07T11:18:27;7.33;;;1.00;;
70369;SDS011;57790;51.356;-2.906;2023-04-07T11:21:28;2.77;;;0.60;;
70369;SDS011;57790;51.356;-2.906;2023-04-07T11:24:33;3.78;;;0.73;;
70369;SDS011;57790;51.356;-2.906;2023-04-07T11:27:39;3.00;;;0.50;;
70369;SDS011;57790;51.356;-2.906;2023-04-07T11:30:47;2.30;;;0.60;;
70369;SDS011;57790;51.356;-2.906;2023-04-07T11:33:51;3.22;;;0.60;;
70369;SDS011;57790;51.356;-2.906;2023-04-07T11:36:55;3.63;;;0.70;;
70369;SDS011;57790;51.356;-2.906;2023-04-07T11:39:59;2.28;;;0.50;;
70369;SDS011;57790;51.356;-2.906;2023-04-07T11:42:59;3.87;;;0.90;;
70369;SDS011;57790;51.356;-2.906;2023-04-07T11:46:03;2.58;;;0.55;;
70369;SDS011;57790;51.356;-2.906;2023-04-07T11:49:09;4.50;;;0.60;;
70369;SDS011;57790;51.356;-2.906;2023-04-07T11:52:11;4.57;;;0.67;;
70369;SDS011;57790;51.356;-2.906;2023-04-07T11:58:23;2.60;;;0.60;;
70369;SDS011;57790;51.356;-2.906;2023-04-07T12:01:24;3.47;;;0.50;;
70369;SDS011;57790;51.356;-2.906;2023-04-07T12:04:53;5.07;;;0.70;;
70369;SDS011;57790;51.356;-2.906;2023-04-07T12:07:56;3.63;;;0.50;;
70369;SDS011;57790;51.356;-2.906;2023-04-07T12:11:03;4.15;;;0.70;;
70369;SDS011;57790;51.356;-2.906;2023-04-07T12:14:04;3.30;;;0.50;;
70369;SDS011;57790;51.356;-2.906;2023-04-07T12:17:05;3.38;;;0.60;;
70369;SDS011;57790;51.356;-2.906;2023-04-07T12:20:08;1.77;;;0.40;;
70369;SDS011;57790;51.356;-2.906;2023-04-07T12:23:09;3.60;;;0.68;;
70369;SDS011;57790;51.356;-2.906;2023-04-07T12:26:09;2.43;;;0.50;;
70369;SDS011;57790;51.356;-2.906;2023-04-07T12:29:10;2.60;;;0.57;;
70369;SDS011;57790;51.356;-2.906;2023-04-07T12:32:11;7.00;;;0.70;;
70369;SDS011;57790;51.356;-2.906;2023-04-07T12:35:12;3.17;;;0.50;;
70369;SDS011;57790;51.356;-2.906;2023-04-07T12:38:12;3.10;;;0.50;;
70369;SDS011;57790;51.356;-2.906;2023-04-07T12:41:13;1.63;;;0.50;;
70369;SDS011;57790;51.356;-2.906;2023-04-07T12:44:14;3.53;;;0.57;;
70369;SDS011;57790;51.356;-2.906;2023-04-07T12:47:15;3.55;;;0.60;;
70369;SDS011;57790;51.356;-2.906;2023-04-07T12:50:15;4.43;;;0.60;;
70369;SDS011;57790;51.356;-2.906;2023-04-07T12:53:16;2.88;;;0.60;;
70369;SDS011;57790;51.356;-2.906;2023-04-07T12:56:16;4.07;;;0.67;;
70369;SDS011;57790;51.356;-2.906;2023-04-07T12:59:17;5.83;;;0.80;;
70369;SDS011;57790;51.356;-2.906;2023-04-07T13:02:17;2.93;;;0.60;;
70369;SDS011;57790;51.356;-2.906;2023-04-07T13:05:18;1.90;;;0.60;;
70369;SDS011;57790;51.356;-2.906;2023-04-07T13:08:18;3.27;;;0.50;;
70369;SDS011;57790;51.356;-2.906;2023-04-07T13:11:19;5.38;;;0.60;;
70369;SDS011;57790;51.356;-2.906;2023-04-07T13:14:20;4.53;;;0.63;;
70369;SDS011;57790;51.356;-2.906;2023-04-07T13:17:21;3.53;;;0.60;;
70369;SDS011;57790;51.356;-2.906;2023-04-07T13:20:21;2.50;;;0.50;;
70369;SDS011;57790;51.356;-2.906;2023-04-07T13:23:22;3.70;;;0.50;;
70369;SDS011;57790;51.356;-2.906;2023-04-07T13:26:22;4.40;;;0.60;;
70369;SDS011;57790;51.356;-2.906;2023-04-07T13:29:23;3.05;;;0.68;;
70369;SDS011;57790;51.356;-2.906;2023-04-07T13:32:23;2.50;;;0.80;;
70369;SDS011;57790;51.356;-2.906;2023-04-07T13:35:23;4.30;;;0.60;;
70369;SDS011;57790;51.356;-2.906;2023-04-07T13:38:24;3.87;;;0.67;;
70369;SDS011;57790;51.356;-2.906;2023-04-07T13:41:25;1.75;;;0.40;;
70369;SDS011;57790;51.356;-2.906;2023-04-07T13:44:26;4.17;;;0.70;;
70369;SDS011;57790;51.356;-2.906;2023-04-07T13:47:27;4.47;;;0.60;;
70369;SDS011;57790;51.356;-2.906;2023-04-07T13:50:34;2.85;;;0.60;;
70369;SDS011;57790;51.356;-2.906;2023-04-07T13:53:35;3.10;;;0.60;;
70369;SDS011;57790;51.356;-2.906;2023-04-07T13:56:36;3.60;;;0.70;;
70369;SDS011;57790;51.356;-2.906;2023-04-07T13:59:37;2.23;;;0.43;;
70369;SDS011;57790;51.356;-2.906;2023-04-07T14:02:37;3.13;;;0.50;;
70369;SDS011;57790;51.356;-2.906;2023-04-07T14:05:38;4.17;;;0.60;;
70369;SDS011;57790;51.356;-2.906;2023-04-07T14:08:38;4.57;;;0.87;;
70369;SDS011;57790;51.356;-2.906;2023-04-07T14:11:39;3.30;;;0.40;;
70369;SDS011;57790;51.356;-2.906;2023-04-07T14:14:39;2.50;;;0.50;;
70369;SDS011;57790;51.356;-2.906;2023-04-07T14:17:40;3.33;;;0.43;;
70369;SDS011;57790;51.356;-2.906;2023-04-07T14:20:40;3.40;;;0.70;;
70369;SDS011;57790;51.356;-2.906;2023-04-07T14:23:40;4.40;;;0.60;;
70369;SDS011;57790;51.356;-2.906;2023-04-07T14:26:42;2.67;;;0.50;;
70369;SDS011;57790;51.356;-2.906;2023-04-07T14:29:44;2.72;;;0.50;;
70369;SDS011;57790;51.356;-2.906;2023-04-07T14:32:44;3.13;;;0.60;;
70369;SDS011;57790;51.356;-2.906;2023-04-07T14:35:45;2.50;;;0.40;;
70369;SDS011;57790;51.356;-2.906;2023-04-07T14:38:45;3.57;;;0.50;;
70369;SDS011;57790;51.356;-2.906;2023-04-07T14:41:46;2.30;;;0.60;;
70369;SDS011;57790;51.356;-2.906;2023-04-07T14:44:47;3.77;;;0.60;;
70369;SDS011;57790;51.356;-2.906;2023-04-07T14:47:47;2.90;;;0.70;;
70369;SDS011;57790;51.356;-2.906;2023-04-07T14:50:47;1.40;;;0.40;;
70369;SDS011;57790;51.356;-2.906;2023-04-07T14:53:48;2.08;;;0.50;;
70369;SDS011;57790;51.356;-2.906;2023-04-07T14:56:54;3.73;;;0.67;;
70369;SDS011;57790;51.356;-2.906;2023-04-07T14:59:55;2.80;;;0.43;;
70369;SDS011;57790;51.356;-2.906;2023-04-07T15:02:55;4.60;;;0.83;;
70369;SDS011;57790;51.356;-2.906;2023-04-07T15:05:56;4.40;;;0.60;;
70369;SDS011;57790;51.356;-2.906;2023-04-07T15:08:57;3.20;;;0.55;;
70369;SDS011;57790;51.356;-2.906;2023-04-07T15:11:57;3.33;;;0.50;;
70369;SDS011;57790;51.356;-2.906;2023-04-07T15:14:59;1.92;;;0.50;;
70369;SDS011;57790;51.356;-2.906;2023-04-07T15:17:59;2.13;;;0.50;;
70369;SDS011;57790;51.356;-2.906;2023-04-07T15:21:00;3.77;;;0.50;;
70369;SDS011;57790;51.356;-2.906;2023-04-07T15:24:00;2.80;;;0.60;;
70369;SDS011;57790;51.356;-2.906;2023-04-07T15:27:00;3.33;;;0.70;;
70369;SDS011;57790;51.356;-2.906;2023-04-07T15:30:01;3.95;;;0.50;;
70369;SDS011;57790;51.356;-2.906;2023-04-07T15:33:02;2.50;;;0.57;;
70369;SDS011;57790;51.356;-2.906;2023-04-07T15:36:03;2.60;;;0.40;;
70369;SDS011;57790;51.356;-2.906;2023-04-07T15:39:05;5.25;;;0.50;;
70369;SDS011;57790;51.356;-2.906;2023-04-07T15:42:08;4.20;;;0.57;;
70369;SDS011;57790;51.356;-2.906;2023-04-07T15:45:11;3.08;;;0.47;;
70369;SDS011;57790;51.356;-2.906;2023-04-07T15:48:11;2.23;;;0.40;;
70369;SDS011;57790;51.356;-2.906;2023-04-07T15:51:12;1.58;;;0.45;;
70369;SDS011;57790;51.356;-2.906;2023-04-07T15:54:13;1.93;;;0.40;;
70369;SDS011;57790;51.356;-2.906;2023-04-07T15:57:13;1.35;;;0.47;;
70369;SDS011;57790;51.356;-2.906;2023-04-07T16:00:15;2.17;;;0.40;;
70369;SDS011;57790;51.356;-2.906;2023-04-07T16:03:17;2.97;;;0.60;;
70369;SDS011;57790;51.356;-2.906;2023-04-07T16:06:17;2.60;;;0.60;;
70369;SDS011;57790;51.356;-2.906;2023-04-07T16:09:17;3.37;;;0.50;;
70369;SDS011;57790;51.356;-2.906;2023-04-07T16:12:18;1.88;;;0.50;;
70369;SDS011;57790;51.356;-2.906;2023-04-07T16:15:18;2.30;;;0.50;;
70369;SDS011;57790;51.356;-2.906;2023-04-07T16:18:19;1.73;;;0.50;;
70369;SDS011;57790;51.356;-2.906;2023-04-07T16:21:20;1.50;;;0.40;;
70369;SDS011;57790;51.356;-2.906;2023-04-07T16:24:21;2.40;;;0.60;;
70369;SDS011;57790;51.356;-2.906;2023-04-07T16:27:21;1.17;;;0.33;;
70369;SDS011;57790;51.356;-2.906;2023-04-07T16:30:22;4.00;;;0.60;;
70369;SDS011;57790;51.356;-2.906;2023-04-07T16:33:24;2.17;;;0.63;;
70369;SDS011;57790;51.356;-2.906;2023-04-07T16:36:24;2.05;;;0.40;;
70369;SDS011;57790;51.356;-2.906;2023-04-07T16:39:25;2.53;;;0.53;;
70369;SDS011;57790;51.356;-2.906;2023-04-07T16:42:26;2.13;;;0.50;;
70369;SDS011;57790;51.356;-2.906;2023-04-07T16:45:27;3.17;;;0.53;;
70369;SDS011;57790;51.356;-2.906;2023-04-07T16:48:28;2.00;;;0.50;;
70369;SDS011;57790;51.356;-2.906;2023-04-07T16:51:28;2.23;;;0.50;;
70369;SDS011;57790;51.356;-2.906;2023-04-07T16:54:29;2.20;;;0.40;;
70369;SDS011;57790;51.356;-2.906;2023-04-07T16:57:29;2.90;;;0.60;;
70369;SDS011;57790;51.356;-2.906;2023-04-07T17:00:29;2.28;;;0.55;;
70369;SDS011;57790;51.356;-2.906;2023-04-07T17:03:30;1.60;;;0.50;;
70369;SDS011;57790;51.356;-2.906;2023-04-07T17:06:30;2.07;;;0.60;;
70369;SDS011;57790;51.356;-2.906;2023-04-07T17:09:31;2.77;;;0.50;;
70369;SDS011;57790;51.356;-2.906;2023-04-07T17:12:32;3.15;;;0.60;;
70369;SDS011;57790;51.356;-2.906;2023-04-07T17:15:35;3.17;;;0.80;;
70369;SDS011;57790;51.356;-2.906;2023-04-07T17:18:36;2.22;;;0.63;;
70369;SDS011;57790;51.356;-2.906;2023-04-07T17:21:37;2.60;;;0.50;;
70369;SDS011;57790;51.356;-2.906;2023-04-07T17:24:37;2.33;;;0.70;;
70369;SDS011;57790;51.356;-2.906;2023-04-07T17:27:38;3.17;;;0.50;;
70369;SDS011;57790;51.356;-2.906;2023-04-07T17:30:38;5.23;;;0.90;;
70369;SDS011;57790;51.356;-2.906;2023-04-07T17:33:39;3.97;;;0.70;;
70369;SDS011;57790;51.356;-2.906;2023-04-07T17:36:39;2.77;;;0.80;;
70369;SDS011;57790;51.356;-2.906;2023-04-07T17:39:40;2.92;;;0.60;;
70369;SDS011;57790;51.356;-2.906;2023-04-07T17:42:40;2.53;;;0.60;;
70369;SDS011;57790;51.356;-2.906;2023-04-07T17:45:41;4.00;;;0.82;;
70369;SDS011;57790;51.356;-2.906;2023-04-07T17:48:42;4.43;;;0.70;;
70369;SDS011;57790;51.356;-2.906;2023-04-07T17:51:44;2.65;;;0.90;;
70369;SDS011;57790;51.356;-2.906;2023-04-07T17:54:44;2.60;;;0.63;;
70369;SDS011;57790;51.356;-2.906;2023-04-07T17:57:45;5.73;;;0.90;;
70369;SDS011;57790;51.356;-2.906;2023-04-07T18:00:45;2.60;;;0.63;;
70369;SDS011;57790;51.356;-2.906;2023-04-07T18:03:46;3.93;;;0.67;;
70369;SDS011;57790;51.356;-2.906;2023-04-07T18:06:47;4.45;;;0.60;;
70369;SDS011;57790;51.356;-2.906;2023-04-07T18:09:47;2.78;;;0.70;;
70369;SDS011;57790;51.356;-2.906;2023-04-07T18:12:48;4.30;;;0.70;;
70369;SDS011;57790;51.356;-2.906;2023-04-07T18:15:48;3.00;;;0.60;;
70369;SDS011;57790;51.356;-2.906;2023-04-07T18:18:49;2.27;;;0.53;;